sensor_id;sensor_type;location;lat;lon;timestamp;pressure;altitude;pressure_sealevel;temperature;humidity
45523;BME280;31254;51.680;5.394;2023-01-30T00:01:28;101866.06;;;5.57;82.83
45523;BME280;31254;51.680;5.394;2023-01-30T00:03:58;101865.09;;;5.58;83.15
45523;BME280;31254;51.680;5.394;2023-01-30T00:06:25;101857.63;;;5.47;83.05
45523;BME280;31254;51.680;5.394;2023-01-30T00:08:52;101878.53;;;5.59;83.33
45523;BME280;31254;51.680;5.394;2023-01-30T00:11:19;101746.06;;;4.97;83.25
45523;BME280;31254;51.680;5.394;2023-01-30T00:13:47;101809.88;;;5.46;83.34
45523;BME280;31254;51.680;5.394;2023-01-30T00:16:15;101850.41;;;5.62;83.10
45523;BME280;31254;51.680;5.394;2023-01-30T00:18:44;101846.75;;;5.63;83.25
45523;BME280;31254;51.680;5.394;2023-01-30T00:21:15;101831.06;;;5.54;83.44
45523;BME280;31254;51.680;5.394;2023-01-30T00:23:43;101842.28;;;5.62;83.37
45523;BME280;31254;51.680;5.394;2023-01-30T00:26:10;101825.63;;;5.54;83.49
45523;BME280;31254;51.680;5.394;2023-01-30T00:28:38;101837.47;;;5.67;82.98
45523;BME280;31254;51.680;5.394;2023-01-30T00:31:05;101838.25;;;5.69;83.76
45523;BME280;31254;51.680;5.394;2023-01-30T00:33:32;101839.97;;;5.70;83.46
45523;BME280;31254;51.680;5.394;2023-01-30T00:36:01;101839.88;;;5.72;83.55
45523;BME280;31254;51.680;5.394;2023-01-30T00:38:30;101830.81;;;5.73;83.53
45523;BME280;31254;51.680;5.394;2023-01-30T00:40:57;101829.84;;;5.74;83.47
45523;BME280;31254;51.680;5.394;2023-01-30T00:43:24;101833.31;;;5.76;83.89
45523;BME280;31254;51.680;5.394;2023-01-30T00:46:23;101829.66;;;5.77;83.90
45523;BME280;31254;51.680;5.394;2023-01-30T00:49:10;101829.03;;;5.72;83.86
45523;BME280;31254;51.680;5.394;2023-01-30T00:51:36;101826.63;;;5.81;84.05
45523;BME280;31254;51.680;5.394;2023-01-30T00:54:04;101811.00;;;5.72;83.79
45523;BME280;31254;51.680;5.394;2023-01-30T00:56:30;101818.31;;;5.84;84.02
45523;BME280;31254;51.680;5.394;2023-01-30T00:58:57;101823.66;;;5.86;84.07
45523;BME280;31254;51.680;5.394;2023-01-30T01:01:24;101819.03;;;5.88;83.93
45523;BME280;31254;51.680;5.394;2023-01-30T01:03:53;101811.78;;;5.89;84.06
45523;BME280;31254;51.680;5.394;2023-01-30T01:06:22;101804.78;;;5.84;84.40
45523;BME280;31254;51.680;5.394;2023-01-30T01:08:48;101806.06;;;5.93;84.20
45523;BME280;31254;51.680;5.394;2023-01-30T01:11:15;101783.91;;;5.86;84.29
45523;BME280;31254;51.680;5.394;2023-01-30T01:13:52;101795.84;;;5.98;84.56
45523;BME280;31254;51.680;5.394;2023-01-30T01:16:19;101798.44;;;6.00;84.30
45523;BME280;31254;51.680;5.394;2023-01-30T01:18:46;101769.19;;;5.91;84.57
45523;BME280;31254;51.680;5.394;2023-01-30T01:21:15;101726.25;;;5.70;84.41
45523;BME280;31254;51.680;5.394;2023-01-30T01:23:57;101796.22;;;6.07;84.60
45523;BME280;31254;51.680;5.394;2023-01-30T01:26:26;101797.97;;;6.08;84.47
45523;BME280;31254;51.680;5.394;2023-01-30T01:28:55;101781.53;;;6.11;84.52
45523;BME280;31254;51.680;5.394;2023-01-30T01:31:22;101785.09;;;6.11;84.47
45523;BME280;31254;51.680;5.394;2023-01-30T01:33:50;101783.16;;;6.13;84.67
45523;BME280;31254;51.680;5.394;2023-01-30T01:36:18;101782.19;;;6.14;84.65
45523;BME280;31254;51.680;5.394;2023-01-30T01:39:05;101767.56;;;6.17;84.35
45523;BME280;31254;51.680;5.394;2023-01-30T01:41:31;101768.34;;;6.19;84.79
45523;BME280;31254;51.680;5.394;2023-01-30T01:51:59;101741.25;;;6.19;85.28
45523;BME280;31254;51.680;5.394;2023-01-30T01:54:46;101743.34;;;6.28;85.15
45523;BME280;31254;51.680;5.394;2023-01-30T01:57:30;101744.13;;;6.30;84.85
45523;BME280;31254;51.680;5.394;2023-01-30T02:00:06;101730.88;;;6.26;84.94
45523;BME280;31254;51.680;5.394;2023-01-30T02:02:45;101724.66;;;6.23;85.28
45523;BME280;31254;51.680;5.394;2023-01-30T02:05:14;101731.44;;;6.31;85.19
45523;BME280;31254;51.680;5.394;2023-01-30T02:07:52;101713.53;;;6.28;85.13
45523;BME280;31254;51.680;5.394;2023-01-30T02:10:29;101726.38;;;6.39;85.43
45523;BME280;31254;51.680;5.394;2023-01-30T02:12:58;101710.22;;;6.37;85.20
45523;BME280;31254;51.680;5.394;2023-01-30T02:15:25;101717.84;;;6.45;85.38
45523;BME280;31254;51.680;5.394;2023-01-30T02:17:52;101691.25;;;6.37;85.72
45523;BME280;31254;51.680;5.394;2023-01-30T02:20:50;101648.03;;;6.21;85.49
45523;BME280;31254;51.680;5.394;2023-01-30T02:31:49;101723.69;;;6.66;85.70
45523;BME280;31254;51.680;5.394;2023-01-30T02:45:33;101701.72;;;6.84;85.82
45523;BME280;31254;51.680;5.394;2023-01-30T02:50:52;101685.88;;;6.90;86.00
45523;BME280;31254;51.680;5.394;2023-01-30T02:53:22;101664.72;;;6.83;86.19
45523;BME280;31254;51.680;5.394;2023-01-30T02:55:51;101608.34;;;6.48;86.06
45523;BME280;31254;51.680;5.394;2023-01-30T02:58:21;101682.88;;;6.95;86.20
45523;BME280;31254;51.680;5.394;2023-01-30T03:09:42;101667.66;;;6.92;86.27
45523;BME280;31254;51.680;5.394;2023-01-30T03:12:16;101667.44;;;6.95;86.53
45523;BME280;31254;51.680;5.394;2023-01-30T03:14:55;101664.63;;;6.97;86.67
45523;BME280;31254;51.680;5.394;2023-01-30T03:17:25;101636.53;;;6.85;86.47
45523;BME280;31254;51.680;5.394;2023-01-30T03:19:53;101653.34;;;6.90;87.11
45523;BME280;31254;51.680;5.394;2023-01-30T03:22:22;101647.59;;;6.95;87.14
45523;BME280;31254;51.680;5.394;2023-01-30T03:24:52;101602.31;;;6.70;87.10
45523;BME280;31254;51.680;5.394;2023-01-30T03:27:20;101632.06;;;6.84;87.27
45523;BME280;31254;51.680;5.394;2023-01-30T03:29:47;101657.03;;;7.02;87.34
45523;BME280;31254;51.680;5.394;2023-01-30T03:32:16;101656.19;;;7.02;87.47
45523;BME280;31254;51.680;5.394;2023-01-30T03:34:43;101644.53;;;7.00;87.38
45523;BME280;31254;51.680;5.394;2023-01-30T03:37:09;101641.59;;;7.03;87.21
45523;BME280;31254;51.680;5.394;2023-01-30T03:39:36;101637.81;;;7.05;87.48
45523;BME280;31254;51.680;5.394;2023-01-30T03:42:03;101628.94;;;7.03;87.68
45523;BME280;31254;51.680;5.394;2023-01-30T03:44:29;101631.75;;;7.02;87.84
45523;BME280;31254;51.680;5.394;2023-01-30T03:46:58;101630.44;;;7.07;87.80
45523;BME280;31254;51.680;5.394;2023-01-30T03:49:27;101637.63;;;7.08;87.76
45523;BME280;31254;51.680;5.394;2023-01-30T03:51:54;101644.75;;;7.09;87.86
45523;BME280;31254;51.680;5.394;2023-01-30T03:54:21;101638.25;;;7.12;88.04
45523;BME280;31254;51.680;5.394;2023-01-30T03:56:49;101647.38;;;7.11;87.96
45523;BME280;31254;51.680;5.394;2023-01-30T03:59:16;101625.34;;;7.03;88.06
45523;BME280;31254;51.680;5.394;2023-01-30T04:01:42;101646.28;;;7.13;88.18
45523;BME280;31254;51.680;5.394;2023-01-30T04:04:09;101652.47;;;7.16;87.87
45523;BME280;31254;51.680;5.394;2023-01-30T04:06:38;101651.41;;;7.18;88.23
45523;BME280;31254;51.680;5.394;2023-01-30T04:09:05;101641.50;;;7.17;87.83
45523;BME280;31254;51.680;5.394;2023-01-30T04:11:31;101644.13;;;7.19;88.07
45523;BME280;31254;51.680;5.394;2023-01-30T04:13:58;101617.75;;;7.08;88.40
45523;BME280;31254;51.680;5.394;2023-01-30T04:16:25;101642.16;;;7.21;88.15
45523;BME280;31254;51.680;5.394;2023-01-30T04:18:53;101617.31;;;7.14;88.21
45523;BME280;31254;51.680;5.394;2023-01-30T04:21:20;101640.22;;;7.23;88.60
45523;BME280;31254;51.680;5.394;2023-01-30T04:23:46;101621.97;;;7.12;88.57
45523;BME280;31254;51.680;5.394;2023-01-30T04:26:15;101639.00;;;7.27;88.63
45523;BME280;31254;51.680;5.394;2023-01-30T04:28:42;101646.28;;;7.26;88.84
45523;BME280;31254;51.680;5.394;2023-01-30T04:31:10;101623.28;;;7.19;88.53
45523;BME280;31254;51.680;5.394;2023-01-30T04:33:37;101644.34;;;7.28;88.54
45523;BME280;31254;51.680;5.394;2023-01-30T04:36:06;101627.94;;;7.30;88.83
45523;BME280;31254;51.680;5.394;2023-01-30T04:38:34;101636.97;;;7.30;88.73
45523;BME280;31254;51.680;5.394;2023-01-30T04:41:02;101528.78;;;6.62;88.82
45523;BME280;31254;51.680;5.394;2023-01-30T04:43:29;101636.72;;;7.33;88.95
45523;BME280;31254;51.680;5.394;2023-01-30T04:45:56;101625.66;;;7.37;89.09
45523;BME280;31254;51.680;5.394;2023-01-30T04:48:24;101626.31;;;7.27;89.27
45523;BME280;31254;51.680;5.394;2023-01-30T04:50:53;101615.59;;;7.26;89.04
45523;BME280;31254;51.680;5.394;2023-01-30T04:53:20;101629.56;;;7.32;88.93
45523;BME280;31254;51.680;5.394;2023-01-30T04:55:49;101620.69;;;7.30;89.32
45523;BME280;31254;51.680;5.394;2023-01-30T04:58:19;101624.38;;;7.29;89.32
45523;BME280;31254;51.680;5.394;2023-01-30T05:00:46;101651.50;;;7.42;89.40
45523;BME280;31254;51.680;5.394;2023-01-30T05:03:13;101644.09;;;7.44;89.39
45523;BME280;31254;51.680;5.394;2023-01-30T05:05:40;101640.53;;;7.44;89.31
45523;BME280;31254;51.680;5.394;2023-01-30T05:08:07;101655.59;;;7.48;89.35
45523;BME280;31254;51.680;5.394;2023-01-30T05:10:39;101652.91;;;7.48;89.54
45523;BME280;31254;51.680;5.394;2023-01-30T05:13:05;101632.19;;;7.47;89.69
45523;BME280;31254;51.680;5.394;2023-01-30T05:15:32;101640.22;;;7.48;89.38
45523;BME280;31254;51.680;5.394;2023-01-30T05:18:01;101625.22;;;7.43;89.50
45523;BME280;31254;51.680;5.394;2023-01-30T05:20:28;101638.16;;;7.39;89.88
45523;BME280;31254;51.680;5.394;2023-01-30T05:22:55;101608.41;;;7.12;90.36
45523;BME280;31254;51.680;5.394;2023-01-30T05:25:26;101591.47;;;6.95;89.96
45523;BME280;31254;51.680;5.394;2023-01-30T05:27:52;101635.88;;;7.20;90.78
45523;BME280;31254;51.680;5.394;2023-01-30T05:30:19;101626.66;;;7.10;90.67
45523;BME280;31254;51.680;5.394;2023-01-30T05:32:46;101643.47;;;7.15;90.83
45523;BME280;31254;51.680;5.394;2023-01-30T05:35:12;101645.00;;;7.19;90.71
45523;BME280;31254;51.680;5.394;2023-01-30T05:37:39;101644.75;;;7.22;90.57
45523;BME280;31254;51.680;5.394;2023-01-30T05:40:08;101643.78;;;7.23;90.52
45523;BME280;31254;51.680;5.394;2023-01-30T05:42:35;101641.72;;;7.27;90.50
45523;BME280;31254;51.680;5.394;2023-01-30T05:45:02;101645.97;;;7.31;90.32
45523;BME280;31254;51.680;5.394;2023-01-30T05:47:28;101631.75;;;7.27;90.33
45523;BME280;31254;51.680;5.394;2023-01-30T05:49:58;101626.88;;;7.32;90.21
45523;BME280;31254;51.680;5.394;2023-01-30T05:52:24;101547.88;;;6.86;90.15
45523;BME280;31254;51.680;5.394;2023-01-30T05:54:51;101647.91;;;7.42;90.27
45523;BME280;31254;51.680;5.394;2023-01-30T05:57:18;101636.09;;;7.30;89.91
45523;BME280;31254;51.680;5.394;2023-01-30T05:59:44;101663.22;;;7.43;90.33
45523;BME280;31254;51.680;5.394;2023-01-30T06:02:11;101671.25;;;7.44;90.13
45523;BME280;31254;51.680;5.394;2023-01-30T06:04:38;101665.72;;;7.46;89.98
45523;BME280;31254;51.680;5.394;2023-01-30T06:07:04;101668.13;;;7.50;90.00
45523;BME280;31254;51.680;5.394;2023-01-30T06:09:33;101675.41;;;7.50;89.82
45523;BME280;31254;51.680;5.394;2023-01-30T06:12:02;101679.28;;;7.46;89.97
45523;BME280;31254;51.680;5.394;2023-01-30T06:14:29;101673.75;;;7.35;90.39
45523;BME280;31254;51.680;5.394;2023-01-30T06:16:56;101690.81;;;7.37;90.28
45523;BME280;31254;51.680;5.394;2023-01-30T06:19:22;101691.69;;;7.37;90.21
45523;BME280;31254;51.680;5.394;2023-01-30T06:21:49;101692.53;;;7.38;90.22
45523;BME280;31254;51.680;5.394;2023-01-30T06:24:16;101694.72;;;7.32;90.23
45523;BME280;31254;51.680;5.394;2023-01-30T06:26:45;101697.75;;;7.28;90.45
45523;BME280;31254;51.680;5.394;2023-01-30T06:29:11;101682.88;;;7.08;90.86
45523;BME280;31254;51.680;5.394;2023-01-30T06:31:38;101710.91;;;7.21;90.61
45523;BME280;31254;51.680;5.394;2023-01-30T06:34:09;101696.00;;;7.14;90.47
45523;BME280;31254;51.680;5.394;2023-01-30T06:36:37;101706.63;;;7.04;90.66
45523;BME280;31254;51.680;5.394;2023-01-30T06:39:03;101694.69;;;6.94;90.92
45523;BME280;31254;51.680;5.394;2023-01-30T06:41:30;101699.78;;;6.99;91.01
45523;BME280;31254;51.680;5.394;2023-01-30T06:43:57;101709.09;;;6.94;90.87
45523;BME280;31254;51.680;5.394;2023-01-30T06:46:23;101694.13;;;6.89;90.56
45523;BME280;31254;51.680;5.394;2023-01-30T06:48:50;101705.63;;;6.92;90.52
45523;BME280;31254;51.680;5.394;2023-01-30T06:51:17;101684.56;;;6.83;90.50
45523;BME280;31254;51.680;5.394;2023-01-30T06:53:46;101690.78;;;6.85;90.54
45523;BME280;31254;51.680;5.394;2023-01-30T06:56:12;101681.81;;;6.70;90.42
45523;BME280;31254;51.680;5.394;2023-01-30T06:58:39;101697.56;;;6.78;90.32
45523;BME280;31254;51.680;5.394;2023-01-30T07:01:05;101697.66;;;6.76;89.92
45523;BME280;31254;51.680;5.394;2023-01-30T07:03:32;101700.47;;;6.75;89.90
45523;BME280;31254;51.680;5.394;2023-01-30T07:05:59;101693.56;;;6.71;89.63
45523;BME280;31254;51.680;5.394;2023-01-30T07:08:28;101706.22;;;6.70;89.64
45523;BME280;31254;51.680;5.394;2023-01-30T07:10:54;101709.13;;;6.67;89.44
45523;BME280;31254;51.680;5.394;2023-01-30T07:13:21;101713.16;;;6.62;89.51
45523;BME280;31254;51.680;5.394;2023-01-30T07:15:48;101654.66;;;6.17;89.70
45523;BME280;31254;51.680;5.394;2023-01-30T07:18:16;101716.34;;;6.54;89.77
45523;BME280;31254;51.680;5.394;2023-01-30T07:20:47;101713.75;;;6.52;89.38
45523;BME280;31254;51.680;5.394;2023-01-30T07:23:14;101712.44;;;6.45;89.75
45523;BME280;31254;51.680;5.394;2023-01-30T07:25:43;101719.56;;;6.46;89.67
45523;BME280;31254;51.680;5.394;2023-01-30T07:28:10;101715.84;;;6.34;89.58
45523;BME280;31254;51.680;5.394;2023-01-30T07:30:36;101727.25;;;6.39;89.96
45523;BME280;31254;51.680;5.394;2023-01-30T07:33:04;101680.69;;;6.06;89.59
45523;BME280;31254;51.680;5.394;2023-01-30T07:35:34;101744.41;;;6.40;89.55
45523;BME280;31254;51.680;5.394;2023-01-30T07:38:02;101746.22;;;6.39;89.27
45523;BME280;31254;51.680;5.394;2023-01-30T07:40:28;101717.53;;;6.22;89.16
45523;BME280;31254;51.680;5.394;2023-01-30T07:42:57;101744.41;;;6.40;89.04
45523;BME280;31254;51.680;5.394;2023-01-30T07:45:24;101742.75;;;6.37;88.79
45523;BME280;31254;51.680;5.394;2023-01-30T07:47:54;101755.25;;;6.40;88.65
45523;BME280;31254;51.680;5.394;2023-01-30T07:50:21;101753.69;;;6.36;88.70
45523;BME280;31254;51.680;5.394;2023-01-30T07:52:50;101746.22;;;6.39;88.73
45523;BME280;31254;51.680;5.394;2023-01-30T07:55:17;101753.50;;;6.39;88.43
45523;BME280;31254;51.680;5.394;2023-01-30T07:57:44;101767.03;;;6.39;88.50
45523;BME280;31254;51.680;5.394;2023-01-30T08:00:13;101756.75;;;6.44;88.22
45523;BME280;31254;51.680;5.394;2023-01-30T08:02:40;101730.59;;;6.30;87.69
45523;BME280;31254;51.680;5.394;2023-01-30T08:05:07;101761.78;;;6.50;87.42
45523;BME280;31254;51.680;5.394;2023-01-30T08:07:34;101747.47;;;6.48;87.40
45523;BME280;31254;51.680;5.394;2023-01-30T08:10:00;101737.22;;;6.39;86.97
45523;BME280;31254;51.680;5.394;2023-01-30T08:12:27;101761.13;;;6.47;87.15
45523;BME280;31254;51.680;5.394;2023-01-30T08:14:54;101781.53;;;6.52;86.94
45523;BME280;31254;51.680;5.394;2023-01-30T08:17:23;101779.81;;;6.51;86.92
45523;BME280;31254;51.680;5.394;2023-01-30T08:19:50;101786.84;;;6.54;86.68
45523;BME280;31254;51.680;5.394;2023-01-30T08:22:16;101760.94;;;6.50;86.60
45523;BME280;31254;51.680;5.394;2023-01-30T08:24:43;101766.81;;;6.56;86.89
45523;BME280;31254;51.680;5.394;2023-01-30T08:27:10;101760.47;;;6.43;86.45
45523;BME280;31254;51.680;5.394;2023-01-30T08:29:36;101776.00;;;6.54;86.33
45523;BME280;31254;51.680;5.394;2023-01-30T08:32:03;101777.66;;;6.56;86.04
45523;BME280;31254;51.680;5.394;2023-01-30T08:34:30;101791.97;;;6.58;85.96
45523;BME280;31254;51.680;5.394;2023-01-30T08:36:57;101763.84;;;6.47;85.68
45523;BME280;31254;51.680;5.394;2023-01-30T08:39:23;101802.63;;;6.62;85.77
45523;BME280;31254;51.680;5.394;2023-01-30T08:41:50;101772.84;;;6.47;85.60
45523;BME280;31254;51.680;5.394;2023-01-30T08:44:17;101789.81;;;6.64;85.60
45523;BME280;31254;51.680;5.394;2023-01-30T08:46:43;101804.28;;;6.64;85.65
45523;BME280;31254;51.680;5.394;2023-01-30T08:49:10;101794.69;;;6.58;85.22
45523;BME280;31254;51.680;5.394;2023-01-30T08:51:37;101789.72;;;6.65;84.94
45523;BME280;31254;51.680;5.394;2023-01-30T08:54:04;101787.91;;;6.66;84.87
45523;BME280;31254;51.680;5.394;2023-01-30T08:56:33;101762.38;;;6.41;84.77
45523;BME280;31254;51.680;5.394;2023-01-30T08:59:00;101828.72;;;6.77;84.81
45523;BME280;31254;51.680;5.394;2023-01-30T09:01:27;101785.22;;;6.51;84.37
45523;BME280;31254;51.680;5.394;2023-01-30T09:03:56;101826.41;;;6.85;84.13
45523;BME280;31254;51.680;5.394;2023-01-30T09:06:22;101822.47;;;6.89;83.75
45523;BME280;31254;51.680;5.394;2023-01-30T09:08:51;101837.69;;;6.92;83.76
45523;BME280;31254;51.680;5.394;2023-01-30T09:11:18;101840.22;;;6.95;83.33
45523;BME280;31254;51.680;5.394;2023-01-30T09:13:45;101844.34;;;7.01;82.99
45523;BME280;31254;51.680;5.394;2023-01-30T09:16:17;101837.75;;;7.05;82.87
45523;BME280;31254;51.680;5.394;2023-01-30T09:18:46;101827.56;;;7.08;82.80
45523;BME280;31254;51.680;5.394;2023-01-30T09:21:13;101840.81;;;7.13;82.67
45523;BME280;31254;51.680;5.394;2023-01-30T09:23:40;101845.69;;;7.21;82.53
45523;BME280;31254;51.680;5.394;2023-01-30T09:26:07;101818.66;;;7.06;82.28
45523;BME280;31254;51.680;5.394;2023-01-30T09:28:34;101854.91;;;7.45;79.93
45523;BME280;31254;51.680;5.394;2023-01-30T09:31:01;101819.94;;;7.54;79.83
45523;BME280;31254;51.680;5.394;2023-01-30T09:33:28;101810.09;;;7.78;78.81
45523;BME280;31254;51.680;5.394;2023-01-30T09:35:55;101846.69;;;8.24;77.76
45523;BME280;31254;51.680;5.394;2023-01-30T09:38:22;101871.03;;;8.26;77.59
45523;BME280;31254;51.680;5.394;2023-01-30T09:46:59;101840.19;;;8.14;77.20
45523;BME280;31254;51.680;5.394;2023-01-30T09:53:24;101873.66;;;8.27;77.87
45523;BME280;31254;51.680;5.394;2023-01-30T09:55:27;101870.28;;;8.23;77.60
45523;BME280;31254;51.680;5.394;2023-01-30T09:57:56;101876.59;;;8.24;78.04
45523;BME280;31254;51.680;5.394;2023-01-30T10:22:44;101867.34;;;8.27;76.23
45523;BME280;31254;51.680;5.394;2023-01-30T10:25:39;101903.16;;;8.46;74.41
45523;BME280;31254;51.680;5.394;2023-01-30T10:28:16;101909.66;;;8.44;74.80
45523;BME280;31254;51.680;5.394;2023-01-30T10:30:51;101911.41;;;8.57;74.54
45523;BME280;31254;51.680;5.394;2023-01-30T10:33:28;101925.66;;;8.61;74.16
45523;BME280;31254;51.680;5.394;2023-01-30T10:36:06;101917.50;;;8.61;74.68
45523;BME280;31254;51.680;5.394;2023-01-30T10:38:49;101922.72;;;8.51;74.61
45523;BME280;31254;51.680;5.394;2023-01-30T10:41:53;101914.78;;;8.48;75.36
45523;BME280;31254;51.680;5.394;2023-01-30T10:44:22;101915.53;;;8.37;75.29
45523;BME280;31254;51.680;5.394;2023-01-30T10:47:46;101931.41;;;8.44;74.88
45523;BME280;31254;51.680;5.394;2023-01-30T10:53:16;101925.88;;;8.45;75.04
45523;BME280;31254;51.680;5.394;2023-01-30T10:55:54;101929.25;;;8.49;74.65
45523;BME280;31254;51.680;5.394;2023-01-30T10:58:53;101926.31;;;8.52;74.57
45523;BME280;31254;51.680;5.394;2023-01-30T11:01:33;101925.22;;;8.54;73.76
45523;BME280;31254;51.680;5.394;2023-01-30T11:06:47;101919.34;;;8.60;73.80
45523;BME280;31254;51.680;5.394;2023-01-30T11:09:17;101934.88;;;8.71;73.80
45523;BME280;31254;51.680;5.394;2023-01-30T11:11:50;101942.16;;;8.71;73.81
45523;BME280;31254;51.680;5.394;2023-01-30T11:14:20;101933.44;;;8.91;73.64
45523;BME280;31254;51.680;5.394;2023-01-30T11:16:49;101903.84;;;8.87;72.24
45523;BME280;31254;51.680;5.394;2023-01-30T11:19:19;101925.34;;;9.03;71.64
45523;BME280;31254;51.680;5.394;2023-01-30T11:21:55;101913.81;;;8.99;72.25
45523;BME280;31254;51.680;5.394;2023-01-30T11:24:31;101924.13;;;9.07;72.15
45523;BME280;31254;51.680;5.394;2023-01-30T11:27:18;101924.91;;;9.09;72.43
45523;BME280;31254;51.680;5.394;2023-01-30T11:29:47;101900.78;;;8.91;72.33
45523;BME280;31254;51.680;5.394;2023-01-30T11:32:24;101928.28;;;9.00;72.60
45523;BME280;31254;51.680;5.394;2023-01-30T11:35:25;101929.47;;;8.95;73.07
45523;BME280;31254;51.680;5.394;2023-01-30T11:37:52;101930.50;;;8.94;72.88
45523;BME280;31254;51.680;5.394;2023-01-30T11:40:26;101913.31;;;8.81;72.73
45523;BME280;31254;51.680;5.394;2023-01-30T11:43:11;101927.78;;;8.94;72.93
45523;BME280;31254;51.680;5.394;2023-01-30T11:45:44;101928.75;;;8.93;72.72
45523;BME280;31254;51.680;5.394;2023-01-30T11:48:20;101898.31;;;8.75;72.53
45523;BME280;31254;51.680;5.394;2023-01-30T11:51:09;101932.66;;;9.02;72.55
45523;BME280;31254;51.680;5.394;2023-01-30T11:53:49;101923.38;;;9.05;72.77
45523;BME280;31254;51.680;5.394;2023-01-30T11:59:01;101932.28;;;9.07;70.74
45523;BME280;31254;51.680;5.394;2023-01-30T12:01:30;101936.34;;;9.01;71.28
45523;BME280;31254;51.680;5.394;2023-01-30T12:03:58;101932.16;;;9.08;71.34
45523;BME280;31254;51.680;5.394;2023-01-30T12:06:38;101931.66;;;9.03;71.47
45523;BME280;31254;51.680;5.394;2023-01-30T12:09:32;101935.50;;;8.88;71.99
45523;BME280;31254;51.680;5.394;2023-01-30T12:12:00;101920.59;;;8.81;71.71
45523;BME280;31254;51.680;5.394;2023-01-30T12:14:46;101933.03;;;8.85;71.70
45523;BME280;31254;51.680;5.394;2023-01-30T12:17:32;101931.47;;;8.93;72.02
45523;BME280;31254;51.680;5.394;2023-01-30T12:20:14;101927.88;;;8.93;71.51
45523;BME280;31254;51.680;5.394;2023-01-30T12:25:31;101912.59;;;9.03;71.96
45523;BME280;31254;51.680;5.394;2023-01-30T12:28:08;101910.53;;;8.94;71.66
45523;BME280;31254;51.680;5.394;2023-01-30T12:30:47;101919.56;;;9.07;71.33
45523;BME280;31254;51.680;5.394;2023-01-30T12:33:16;101938.41;;;9.35;70.98
45523;BME280;31254;51.680;5.394;2023-01-30T12:36:34;101951.94;;;9.47;70.43
45523;BME280;31254;51.680;5.394;2023-01-30T12:41:52;101944.88;;;9.69;69.54
45523;BME280;31254;51.680;5.394;2023-01-30T12:58:04;101965.41;;;9.62;69.65
45523;BME280;31254;51.680;5.394;2023-01-30T13:03:36;101977.31;;;9.61;69.88
45523;BME280;31254;51.680;5.394;2023-01-30T13:09:14;101978.28;;;9.60;69.85
45523;BME280;31254;51.680;5.394;2023-01-30T13:12:02;101988.50;;;9.69;69.06
45523;BME280;31254;51.680;5.394;2023-01-30T13:20:11;101959.31;;;9.34;69.62
45523;BME280;31254;51.680;5.394;2023-01-30T13:22:53;101982.16;;;9.44;69.40
45523;BME280;31254;51.680;5.394;2023-01-30T13:25:47;101989.16;;;9.36;69.43
45523;BME280;31254;51.680;5.394;2023-01-30T13:28:22;101985.28;;;9.27;69.34
45523;BME280;31254;51.680;5.394;2023-01-30T13:30:52;101988.13;;;9.25;69.09
45523;BME280;31254;51.680;5.394;2023-01-30T13:33:27;101977.66;;;9.19;68.78
45523;BME280;31254;51.680;5.394;2023-01-30T13:36:05;101990.91;;;9.37;68.69
45523;BME280;31254;51.680;5.394;2023-01-30T13:38:40;101961.75;;;9.26;68.70
45523;BME280;31254;51.680;5.394;2023-01-30T13:41:11;101997.91;;;9.52;68.44
45523;BME280;31254;51.680;5.394;2023-01-30T13:43:44;102010.00;;;9.61;68.39
45523;BME280;31254;51.680;5.394;2023-01-30T13:46:17;102016.53;;;9.58;67.93
45523;BME280;31254;51.680;5.394;2023-01-30T13:51:46;102024.19;;;9.53;68.36
45523;BME280;31254;51.680;5.394;2023-01-30T13:56:56;102038.56;;;9.55;68.02
45523;BME280;31254;51.680;5.394;2023-01-30T14:04:45;102040.72;;;9.63;67.86
45523;BME280;31254;51.680;5.394;2023-01-30T14:07:28;102044.53;;;9.60;68.11
45523;BME280;31254;51.680;5.394;2023-01-30T14:13:10;102048.28;;;9.46;68.80
45523;BME280;31254;51.680;5.394;2023-01-30T14:15:40;102059.63;;;9.40;68.62
45523;BME280;31254;51.680;5.394;2023-01-30T14:18:22;102065.19;;;9.39;68.57
45523;BME280;31254;51.680;5.394;2023-01-30T14:21:19;102075.34;;;9.37;68.92
45523;BME280;31254;51.680;5.394;2023-01-30T14:23:59;102069.00;;;9.36;68.87
45523;BME280;31254;51.680;5.394;2023-01-30T14:32:34;102084.91;;;9.29;68.99
45523;BME280;31254;51.680;5.394;2023-01-30T14:40:35;102083.97;;;9.18;69.04
45523;BME280;31254;51.680;5.394;2023-01-30T14:59:04;102145.06;;;8.88;69.69
45523;BME280;31254;51.680;5.394;2023-01-30T15:01:55;102156.06;;;8.86;69.87
45523;BME280;31254;51.680;5.394;2023-01-30T15:04:45;102156.16;;;8.85;69.19
45523;BME280;31254;51.680;5.394;2023-01-30T15:09:57;102161.50;;;8.99;69.62
45523;BME280;31254;51.680;5.394;2023-01-30T15:12:42;102154.31;;;8.98;69.59
45523;BME280;31254;51.680;5.394;2023-01-30T15:15:28;102172.63;;;8.96;69.57
45523;BME280;31254;51.680;5.394;2023-01-30T15:20:44;102174.09;;;8.87;69.65
45523;BME280;31254;51.680;5.394;2023-01-30T15:23:41;102181.41;;;8.87;69.93
45523;BME280;31254;51.680;5.394;2023-01-30T15:29:25;102179.88;;;8.83;69.79
45523;BME280;31254;51.680;5.394;2023-01-30T15:32:01;102186.41;;;8.80;69.96
45523;BME280;31254;51.680;5.394;2023-01-30T15:34:30;102186.63;;;8.77;69.77
45523;BME280;31254;51.680;5.394;2023-01-30T15:36:57;102198.47;;;8.76;69.99
45523;BME280;31254;51.680;5.394;2023-01-30T15:39:26;102167.75;;;8.61;70.01
45523;BME280;31254;51.680;5.394;2023-01-30T15:42:00;102170.56;;;8.59;70.07
45523;BME280;31254;51.680;5.394;2023-01-30T15:49:58;102201.75;;;8.68;69.97
45523;BME280;31254;51.680;5.394;2023-01-30T15:52:38;102213.69;;;8.66;69.82
45523;BME280;31254;51.680;5.394;2023-01-30T15:55:12;102197.31;;;8.53;70.00
45523;BME280;31254;51.680;5.394;2023-01-30T15:57:44;102229.25;;;8.64;70.51
45523;BME280;31254;51.680;5.394;2023-01-30T16:00:30;102241.19;;;8.61;70.28
45523;BME280;31254;51.680;5.394;2023-01-30T16:03:02;102237.72;;;8.59;70.31
45523;BME280;31254;51.680;5.394;2023-01-30T16:05:30;102232.03;;;8.49;70.56
45523;BME280;31254;51.680;5.394;2023-01-30T16:07:57;102221.81;;;8.38;70.15